Raymond, Ohio
Current Conditions -  °F | °C
As of 9:34 PM on Wednesday 22 Oct 2014 (Local Time) from KMRT Reporting Station
Overcast Overcast  
Wind Chill: 45°   Ceiling: 2900
Heat Index: 47°   Visibility: 10mi
Dew Point: 38°   Wind: 5mph
Humidity: 71%   Direction: 360°N
Pressure: 30.27"   Gusts: NA
Location:  40.33°N, 83.47°W
Report Text: KMRT 230134Z AUTO 36004KT 10SM OVC029 09/04 A3027 RMK AO2 T00850036
Loading
Personal Weather Stations






























Interactive Weather Map New forecast layout! Learn more

10-Day Weather Forecast

Advertisements
Track Severe Weather on mobile